createdAt,value
2022-09-20T00:00:20.759Z,100461.47
2022-09-20T00:01:25.859Z,100452.75
2022-09-20T00:02:28.291Z,100455.41
2022-09-20T00:03:30.053Z,100460.66
2022-09-20T00:04:31.896Z,100460.66
2022-09-20T00:05:36.024Z,100450.25
2022-09-20T00:06:37.653Z,100462.41
2022-09-20T00:07:39.370Z,100461.63
2022-09-20T00:08:41.732Z,100461.69
2022-09-20T00:09:43.371Z,100463.47
2022-09-20T00:10:45.026Z,100464.38
2022-09-20T00:11:46.776Z,100462.66
2022-09-20T00:12:48.486Z,100462.66
2022-09-20T00:13:52.681Z,100450.63
2022-09-20T00:14:54.440Z,100463.56
2022-09-20T00:15:57.898Z,100467.06
2022-09-20T00:16:59.690Z,100464.47
2022-09-20T00:18:01.315Z,100470.59
2022-09-20T00:19:04.326Z,100460.28
2022-09-20T00:20:06.269Z,100464.56
2022-09-20T00:21:15.141Z,100468.81
2022-09-20T00:22:16.755Z,100456.66
2022-09-20T00:23:19.883Z,100466.13
2022-09-20T00:24:21.814Z,100464.38
2022-09-20T00:25:24.990Z,100460.09
2022-09-20T00:26:27.973Z,100459.22
2022-09-20T00:27:29.593Z,100466.22
2022-09-20T00:28:32.322Z,100462.69
2022-09-20T00:29:35.533Z,100456.63
2022-09-20T00:30:37.893Z,100454.06
2022-09-20T00:31:42.829Z,100458.41
2022-09-20T00:32:44.659Z,100461.06
2022-09-20T00:34:05.434Z,100451.56
2022-09-20T00:35:09.288Z,100455.84
2022-09-20T00:36:11.117Z,100457.69
2022-09-20T00:37:12.747Z,100454.25
2022-09-20T00:38:15.464Z,100462.09
2022-09-20T00:39:17.557Z,100462.06
2022-09-20T00:40:21.574Z,100460.41
2022-09-20T00:41:23.459Z,100453.47
2022-09-20T00:42:30.150Z,100465.66
2022-09-20T00:43:50.395Z,100471.78
2022-09-20T00:45:03.345Z,100459.69
2022-09-20T00:46:09.193Z,100461.47
2022-09-20T00:47:17.418Z,100467.53
2022-09-20T00:48:30.073Z,100463.28
2022-09-20T00:49:34.320Z,100465.88
2022-09-20T00:50:36.208Z,100465.03
2022-09-20T00:51:41.371Z,100472.78
2022-09-20T00:52:45.609Z,100470.22
2022-09-20T00:53:50.994Z,100469.38
2022-09-20T00:54:54.075Z,100467.63
2022-09-20T00:56:09.185Z,100470.25
2022-09-20T00:57:10.970Z,100457.41
2022-09-20T00:58:14.819Z,100477.22
2022-09-20T00:59:27.042Z,100459.94
2022-09-20T01:00:29.283Z,100470.34
2022-09-20T01:01:32.362Z,100465.16
2022-09-20T01:02:36.741Z,100474.66
2022-09-20T01:03:41.013Z,100472.06
2022-09-20T01:04:44.877Z,100471.25
2022-09-20T01:05:46.659Z,100475.47
2022-09-20T01:06:51.837Z,100477.22
2022-09-20T01:07:54.851Z,100473.75
2022-09-20T01:08:58.160Z,100477.22
2022-09-20T01:09:59.806Z,100469.38
2022-09-20T01:11:02.296Z,100467.63
2022-09-20T01:12:07.982Z,100466.75
2022-09-20T01:13:09.626Z,100464.16
2022-09-20T01:14:18.170Z,100464.25
2022-09-20T01:15:21.657Z,100466.75
2022-09-20T01:16:25.097Z,100470.19
2022-09-20T01:17:31.469Z,100464.97
2022-09-20T01:18:36.497Z,100471.91
2022-09-20T01:19:54.047Z,100464.16
2022-09-20T01:20:56.667Z,100467.59
2022-09-20T01:21:59.858Z,100451.41
2022-09-20T01:23:26.491Z,100473.69
2022-09-20T01:25:03.102Z,100466.84
2022-09-20T01:26:22.995Z,100468.56
2022-09-20T01:27:52.331Z,100472.03
2022-09-20T01:29:21.259Z,100476.38
2022-09-20T01:30:37.969Z,100472.91
2022-09-20T01:31:52.961Z,100463.50
2022-09-20T01:33:10.893Z,100468.63
2022-09-20T01:34:32.105Z,100458.44
2022-09-20T01:35:35.748Z,100474.78
2022-09-20T01:36:46.088Z,100466.16
2022-09-20T01:38:13.647Z,100461.00
2022-09-20T01:39:30.599Z,100476.59
2022-09-20T01:40:38.725Z,100468.81
2022-09-20T01:42:03.582Z,100467.06
2022-09-20T01:43:33.100Z,100470.63
2022-09-20T01:45:16.634Z,100455.88
2022-09-20T01:46:33.204Z,100468.00
2022-09-20T01:47:47.150Z,100461.94
2022-09-20T01:48:52.614Z,100460.22
2022-09-20T01:50:03.628Z,100460.22
2022-09-20T01:51:26.826Z,100463.66
2022-09-20T01:52:59.495Z,100457.63
2022-09-20T01:54:10.184Z,100463.66
2022-09-20T01:55:39.647Z,100432.72
2022-09-20T01:57:05.902Z,100458.47
2022-09-20T01:58:48.102Z,100461.06
2022-09-20T02:00:10.785Z,100450.72
2022-09-20T02:01:40.530Z,100457.75
2022-09-20T02:03:12.409Z,100452.59
2022-09-20T02:04:29.115Z,100447.44
2022-09-20T02:06:07.848Z,100451.84
2022-09-20T02:07:19.004Z,100457.94
2022-09-20T02:08:54.269Z,100452.84
2022-09-20T02:10:04.963Z,100458.00
2022-09-20T02:11:13.354Z,100459.72
2022-09-20T02:12:30.508Z,100460.59
2022-09-20T02:13:40.849Z,100461.44
2022-09-20T02:14:55.892Z,100467.41
2022-09-20T02:16:31.945Z,100461.34
2022-09-20T02:18:24.333Z,100461.34
2022-09-20T02:19:28.678Z,100463.09
2022-09-20T02:20:38.315Z,100466.50
2022-09-20T02:22:04.718Z,100435.53
2022-09-20T02:23:09.243Z,100455.97
2022-09-20T02:24:41.029Z,100466.31
2022-09-20T02:25:45.551Z,100461.94
2022-09-20T02:27:14.473Z,100458.53
2022-09-20T02:28:49.828Z,100455.88
2022-09-20T02:30:00.800Z,100459.38
2022-09-20T02:31:27.385Z,100461.13
2022-09-20T02:32:42.278Z,100460.25
2022-09-20T02:34:02.454Z,100462.00
2022-09-20T02:35:13.597Z,100461.13
2022-09-20T02:36:40.099Z,100461.03
2022-09-20T02:38:12.764Z,100456.66
2022-09-20T02:39:22.597Z,100454.88
2022-09-20T02:40:30.255Z,100454.84
2022-09-20T02:41:53.472Z,100459.09
2022-09-20T02:43:08.714Z,100447.75
2022-09-20T02:44:38.825Z,100440.06
2022-09-20T02:45:48.557Z,100449.41
2022-09-20T02:47:06.385Z,100450.22
2022-09-20T02:48:08.174Z,100455.38
2022-09-20T02:49:35.444Z,100455.38
2022-09-20T02:51:12.442Z,100451.06
2022-09-20T02:52:41.374Z,100454.47
2022-09-20T02:54:18.217Z,100454.31
2022-09-20T02:55:32.314Z,100455.97
2022-09-20T02:56:52.847Z,100459.41
2022-09-20T02:58:09.694Z,100464.47
2022-09-20T02:59:24.286Z,100460.97
2022-09-20T03:00:34.492Z,100468.72
2022-09-20T03:02:08.887Z,100471.25
2022-09-20T03:03:38.048Z,100466.03
2022-09-20T03:05:01.530Z,100464.28
2022-09-20T03:06:16.548Z,100464.28
2022-09-20T03:07:26.526Z,100467.72
2022-09-20T03:08:47.863Z,100469.50
2022-09-20T03:10:10.852Z,100467.75
2022-09-20T03:11:38.596Z,100468.66
2022-09-20T03:13:13.941Z,100463.41
2022-09-20T03:14:23.906Z,100455.72
2022-09-20T03:15:40.752Z,100463.47
2022-09-20T03:17:13.404Z,100476.44
2022-09-20T03:18:19.536Z,100466.03
2022-09-20T03:19:49.048Z,100466.88
2022-09-20T03:21:11.520Z,100469.50
2022-09-20T03:22:20.049Z,100465.19
2022-09-20T03:23:40.496Z,100467.75
2022-09-20T03:25:04.576Z,100469.44
2022-09-20T03:26:15.162Z,100472.03
2022-09-20T03:27:28.626Z,100474.69
2022-09-20T03:28:50.646Z,100476.38
2022-09-20T03:30:01.079Z,100470.25
2022-09-20T03:31:05.745Z,100479.00
2022-09-20T03:32:27.429Z,100480.72
2022-09-20T03:33:41.295Z,100475.59
2022-09-20T03:35:02.214Z,100476.47
2022-09-20T03:36:25.194Z,100473.88
2022-09-20T03:37:43.655Z,100479.91
2022-09-20T03:38:56.416Z,100479.91
2022-09-20T03:40:10.256Z,100479.00
2022-09-20T03:41:28.086Z,100461.09
2022-09-20T03:42:30.392Z,100472.88
2022-09-20T03:44:00.523Z,100480.63
2022-09-20T03:45:39.884Z,100493.56
2022-09-20T03:46:46.646Z,100480.50
2022-09-20T03:48:03.774Z,100489.06
2022-09-20T03:49:40.666Z,100483.81
2022-09-20T03:51:00.920Z,100482.94
2022-09-20T03:52:05.764Z,100482.88
2022-09-20T03:53:29.401Z,100484.56
2022-09-20T03:54:52.684Z,100484.47
2022-09-20T03:56:20.243Z,100451.78
2022-09-20T03:57:40.763Z,100486.94
2022-09-20T03:59:20.359Z,100492.09
2022-09-20T04:00:53.053Z,100482.47
2022-09-20T04:02:22.810Z,100486.78
2022-09-20T04:03:49.465Z,100473.75
2022-09-20T04:04:58.896Z,100484.06
2022-09-20T04:06:27.945Z,100479.69
2022-09-20T04:07:58.421Z,100483.19
2022-09-20T04:09:53.294Z,100481.34
2022-09-20T04:11:32.581Z,100480.41
2022-09-20T04:13:00.619Z,100477.81
2022-09-20T04:14:23.278Z,100483.78
2022-09-20T04:15:34.556Z,100484.59
2022-09-20T04:16:55.391Z,100489.81
2022-09-20T04:18:23.967Z,100488.03
2022-09-20T04:19:40.139Z,100464.84
2022-09-20T04:21:11.434Z,100491.41
2022-09-20T04:22:13.283Z,100487.09
2022-09-20T04:23:52.304Z,100491.34
2022-09-20T04:25:00.737Z,100486.13
2022-09-20T04:26:04.088Z,100490.34
2022-09-20T04:27:12.902Z,100495.53
2022-09-20T04:28:32.414Z,100493.72
2022-09-20T04:29:37.975Z,100498.09
2022-09-20T04:30:44.110Z,100496.31
2022-09-20T04:31:54.401Z,100498.94
2022-09-20T04:33:11.702Z,100501.38
2022-09-20T04:34:21.859Z,100497.03
2022-09-20T04:36:00.884Z,100498.81
2022-09-20T04:37:05.028Z,100497.88
2022-09-20T04:38:12.583Z,100501.34
2022-09-20T04:39:46.750Z,100510.03
2022-09-20T04:41:21.965Z,100501.28
2022-09-20T04:42:59.468Z,100503.94
2022-09-20T04:44:01.049Z,100503.94
2022-09-20T04:45:21.991Z,100500.47
2022-09-20T04:46:42.437Z,100506.56
2022-09-20T04:47:47.093Z,100502.25
2022-09-20T04:49:06.769Z,100507.38
2022-09-20T04:50:23.637Z,100499.53
2022-09-20T04:51:58.099Z,100503.00
2022-09-20T04:53:21.626Z,100512.56
2022-09-20T04:54:41.468Z,100507.31
2022-09-20T04:55:49.060Z,100512.53
2022-09-20T04:57:26.905Z,100513.38
2022-09-20T04:58:47.078Z,100516.84
2022-09-20T05:00:12.266Z,100510.81
2022-09-20T05:01:17.633Z,100519.47
2022-09-20T05:02:48.443Z,100517.84
2022-09-20T05:04:02.001Z,100521.34
2022-09-20T05:05:06.923Z,100523.09
2022-09-20T05:07:04.332Z,100530.13
2022-09-20T05:08:36.572Z,100525.81
2022-09-20T05:10:09.684Z,100527.63
2022-09-20T05:11:37.650Z,100520.66
2022-09-20T05:13:20.640Z,100526.75
2022-09-20T05:14:37.097Z,100523.34
2022-09-20T05:16:00.361Z,100525.16
2022-09-20T05:17:21.377Z,100522.56
2022-09-20T05:18:38.226Z,100526.91
2022-09-20T05:19:56.066Z,100527.78
2022-09-20T05:21:24.402Z,100524.34
2022-09-20T05:22:51.054Z,100533.09
2022-09-20T05:24:05.545Z,100538.38
2022-09-20T05:25:55.259Z,100531.47
2022-09-20T05:27:22.744Z,100534.94
2022-09-20T05:28:57.218Z,100542.72
2022-09-20T05:30:13.852Z,100539.22
2022-09-20T05:31:54.277Z,100540.00
2022-09-20T05:33:15.786Z,100541.72
2022-09-20T05:34:36.241Z,100543.34
2022-09-20T05:35:50.651Z,100540.72
2022-09-20T05:37:11.861Z,100537.19
2022-09-20T05:38:26.019Z,100527.72
2022-09-20T05:39:40.754Z,100540.56
2022-09-20T05:40:59.964Z,100539.59
2022-09-20T05:42:15.449Z,100544.78
2022-09-20T05:43:42.972Z,100540.28
2022-09-20T05:45:23.752Z,100535.81
2022-09-20T05:47:05.251Z,100537.41
2022-09-20T05:48:32.904Z,100535.66
2022-09-20T05:49:53.606Z,100538.06
2022-09-20T05:51:22.991Z,100537.94
2022-09-20T05:52:44.103Z,100535.16
2022-09-20T05:54:09.338Z,100546.34
2022-09-20T05:55:48.815Z,100545.28
2022-09-20T05:57:34.901Z,100542.34
2022-09-20T05:58:51.541Z,100545.59
2022-09-20T06:00:07.289Z,100549.84
2022-09-20T06:01:15.145Z,100545.34
2022-09-20T06:02:32.856Z,100546.88
2022-09-20T06:03:54.365Z,100551.91
2022-09-20T06:05:24.347Z,100550.81
2022-09-20T06:06:32.797Z,100546.66
2022-09-20T06:07:49.729Z,100550.69
2022-09-20T06:09:07.122Z,100539.28
2022-09-20T06:10:29.100Z,100552.88
2022-09-20T06:11:33.885Z,100548.13
2022-09-20T06:12:52.883Z,100550.25
2022-09-20T06:14:09.285Z,100554.66
2022-09-20T06:15:21.866Z,100539.25
2022-09-20T06:16:49.167Z,100544.25
2022-09-20T06:18:00.294Z,100546.44
2022-09-20T06:19:17.182Z,100539.03
2022-09-20T06:20:24.604Z,100549.63
2022-09-20T06:21:50.218Z,100542.97
2022-09-20T06:22:57.052Z,100543.59
2022-09-20T06:24:03.213Z,100545.94
2022-09-20T06:25:16.824Z,100548.81
2022-09-20T06:26:23.774Z,100544.47
2022-09-20T06:27:31.424Z,100546.53
2022-09-20T06:28:41.988Z,100547.84
2022-09-20T06:29:52.493Z,100539.44
2022-09-20T06:30:56.000Z,100541.66
2022-09-20T06:31:57.905Z,100539.78
2022-09-20T06:33:00.994Z,100540.53
2022-09-20T06:34:10.414Z,100543.72
2022-09-20T06:35:12.715Z,100520.03
2022-09-20T06:36:46.644Z,100551.94
2022-09-20T06:38:24.061Z,100526.50
2022-09-20T06:39:56.078Z,100544.22
2022-09-20T06:41:27.185Z,100544.88
2022-09-20T06:42:29.697Z,100542.66
2022-09-20T06:43:31.642Z,100542.78
2022-09-20T06:44:33.457Z,100541.38
2022-09-20T06:45:35.898Z,100526.09
2022-09-20T06:46:38.583Z,100549.72
2022-09-20T06:47:40.480Z,100551.44
2022-09-20T06:48:42.322Z,100552.06
2022-09-20T06:49:46.576Z,100553.81
2022-09-20T06:50:48.232Z,100556.66
2022-09-20T06:51:50.845Z,100547.00
2022-09-20T06:52:53.705Z,100553.16
2022-09-20T06:53:57.429Z,100552.00
2022-09-20T06:54:59.133Z,100547.56
2022-09-20T06:56:01.914Z,100550.41
2022-09-20T06:57:06.357Z,100548.03
2022-09-20T06:58:09.786Z,100545.78
2022-09-20T06:59:12.799Z,100541.41
2022-09-20T07:00:15.897Z,100551.09
2022-09-20T07:01:29.013Z,100545.22
2022-09-20T07:02:31.706Z,100549.25
2022-09-20T07:03:33.476Z,100552.16
2022-09-20T07:04:35.564Z,100544.25
2022-09-20T07:05:37.426Z,100548.25
2022-09-20T07:06:40.680Z,100552.28
2022-09-20T07:07:44.070Z,100548.78
2022-09-20T07:08:46.939Z,100549.00
2022-09-20T07:09:48.671Z,100545.56
2022-09-20T07:10:50.959Z,100555.75
2022-09-20T07:11:52.670Z,100556.41
2022-09-20T07:12:59.501Z,100549.38
2022-09-20T07:14:01.826Z,100555.81
2022-09-20T07:15:04.179Z,100557.22
2022-09-20T07:16:08.326Z,100553.09
2022-09-20T07:17:10.334Z,100554.41
2022-09-20T07:18:12.409Z,100539.44
2022-09-20T07:19:14.159Z,100553.78
2022-09-20T07:20:20.706Z,100554.19
2022-09-20T07:21:23.160Z,100555.13
2022-09-20T07:22:25.621Z,100552.09
2022-09-20T07:23:29.813Z,100551.53
2022-09-20T07:24:32.299Z,100553.31
2022-09-20T07:25:34.655Z,100553.63
2022-09-20T07:26:37.248Z,100552.38
2022-09-20T07:27:40.242Z,100542.88
2022-09-20T07:28:41.969Z,100548.84
2022-09-20T07:29:43.836Z,100556.03
2022-09-20T07:30:45.763Z,100551.19
2022-09-20T07:31:48.110Z,100551.81
2022-09-20T07:32:50.617Z,100551.91
2022-09-20T07:33:52.547Z,100556.84
2022-09-20T07:34:54.490Z,100551.50
2022-09-20T07:35:56.414Z,100559.09
2022-09-20T07:36:59.790Z,100563.19
2022-09-20T07:38:01.882Z,100563.59
2022-09-20T07:39:03.823Z,100556.44
2022-09-20T07:40:05.965Z,100556.97
2022-09-20T07:41:07.940Z,100566.66
2022-09-20T07:42:09.556Z,100565.00
2022-09-20T07:43:11.200Z,100557.09
2022-09-20T07:44:24.353Z,100567.22
2022-09-20T07:45:26.235Z,100559.94
2022-09-20T07:46:28.291Z,100559.13
2022-09-20T07:47:32.055Z,100561.97
2022-09-20T07:48:36.974Z,100560.75
2022-09-20T07:49:38.880Z,100562.59
2022-09-20T07:50:40.573Z,100563.06
2022-09-20T07:51:42.705Z,100571.25
2022-09-20T07:52:44.473Z,100563.91
2022-09-20T07:53:46.218Z,100560.38
2022-09-20T07:54:50.133Z,100563.72
2022-09-20T07:55:59.940Z,100568.56
2022-09-20T07:57:01.766Z,100566.16
2022-09-20T07:58:03.781Z,100570.50
2022-09-20T07:59:05.872Z,100573.75
2022-09-20T08:00:09.605Z,100573.88
2022-09-20T08:01:13.310Z,100566.00
2022-09-20T08:02:16.201Z,100574.72
2022-09-20T08:03:17.910Z,100575.59
2022-09-20T08:04:19.664Z,100572.28
2022-09-20T08:05:21.305Z,100576.50
2022-09-20T08:06:23.695Z,100576.44
2022-09-20T08:07:25.394Z,100578.00
2022-09-20T08:08:29.084Z,100559.81
2022-09-20T08:09:30.775Z,100580.59
2022-09-20T08:10:33.083Z,100578.09
2022-09-20T08:11:36.195Z,100585.22
2022-09-20T08:14:08.524Z,100567.19
2022-09-20T08:15:12.073Z,100583.34
2022-09-20T08:16:14.897Z,100576.28
2022-09-20T08:17:17.230Z,100576.28
2022-09-20T08:18:18.946Z,100578.53
2022-09-20T08:19:22.926Z,100573.19
2022-09-20T08:20:25.095Z,100580.53
2022-09-20T08:21:32.077Z,100579.91
2022-09-20T08:22:34.827Z,100573.63
2022-09-20T08:23:41.289Z,100585.75
2022-09-20T08:24:44.487Z,100579.88
2022-09-20T08:25:47.050Z,100576.53
2022-09-20T08:26:49.168Z,100581.59
2022-09-20T08:27:54.327Z,100586.34
2022-09-20T08:28:58.060Z,100587.53
2022-09-20T08:30:01.151Z,100584.81
2022-09-20T08:31:07.783Z,100586.44
2022-09-20T08:32:10.348Z,100592.47
2022-09-20T08:33:13.000Z,100588.19
2022-09-20T08:34:15.752Z,100584.41
2022-09-20T08:35:17.798Z,100582.16
2022-09-20T08:36:22.580Z,100574.94
2022-09-20T08:37:25.224Z,100577.44
2022-09-20T08:39:59.600Z,100576.03
2022-09-20T08:41:10.322Z,100576.41
2022-09-20T08:42:28.029Z,100572.75
2022-09-20T08:43:36.758Z,100575.69
2022-09-20T08:44:57.806Z,100572.44
2022-09-20T08:46:05.398Z,100575.34
2022-09-20T08:47:13.207Z,100579.94
2022-09-20T08:48:17.088Z,100567.75
2022-09-20T08:49:28.222Z,100570.41
2022-09-20T08:50:30.178Z,100571.97
2022-09-20T08:51:35.699Z,100568.91
2022-09-20T08:52:40.252Z,100576.22
2022-09-20T08:53:50.205Z,100567.59
2022-09-20T08:54:51.894Z,100569.41
2022-09-20T08:55:53.665Z,100573.72
2022-09-20T08:56:55.800Z,100578.41
2022-09-20T08:57:58.554Z,100564.47
2022-09-20T08:59:00.940Z,100551.53
2022-09-20T09:00:06.621Z,100583.53
2022-09-20T09:01:14.250Z,100575.31
2022-09-20T09:02:19.675Z,100577.22
2022-09-20T09:03:21.892Z,100567.47
2022-09-20T09:04:25.704Z,100576.19
2022-09-20T09:05:43.042Z,100580.50
2022-09-20T09:06:46.089Z,100575.28
2022-09-20T09:07:47.992Z,100576.47
2022-09-20T09:08:51.967Z,100583.13
2022-09-20T09:09:56.459Z,100573.41
2022-09-20T09:11:08.402Z,100585.19
2022-09-20T09:12:29.420Z,100575.78
2022-09-20T09:13:40.101Z,100575.34
2022-09-20T09:14:57.564Z,100576.16
2022-09-20T09:16:02.931Z,100564.72
2022-09-20T09:17:04.609Z,100573.06
2022-09-20T09:18:11.382Z,100573.69
2022-09-20T09:19:34.526Z,100567.41
2022-09-20T09:20:46.289Z,100570.28
2022-09-20T09:21:48.032Z,100570.53
2022-09-20T09:23:21.432Z,100572.19
2022-09-20T09:24:24.570Z,100570.66
2022-09-20T09:25:34.359Z,100573.56
2022-09-20T09:26:38.884Z,100573.91
2022-09-20T09:27:53.389Z,100571.53
2022-09-20T09:29:17.921Z,100569.47
2022-09-20T09:30:27.328Z,100559.56
2022-09-20T09:31:29.687Z,100563.56
2022-09-20T09:32:33.059Z,100555.06
2022-09-20T09:33:35.270Z,100567.34
2022-09-20T09:34:38.965Z,100555.41
2022-09-20T09:35:41.528Z,100562.09
2022-09-20T09:36:46.592Z,100561.16
2022-09-20T09:38:01.260Z,100559.72
2022-09-20T09:39:23.492Z,100560.47
2022-09-20T09:40:26.414Z,100558.41
2022-09-20T09:41:35.666Z,100565.19
2022-09-20T09:42:37.597Z,100555.78
2022-09-20T09:43:40.533Z,100557.16
2022-09-20T09:44:42.245Z,100560.84
2022-09-20T09:45:44.139Z,100559.25
2022-09-20T09:46:46.016Z,100560.13
2022-09-20T09:47:47.711Z,100563.19
2022-09-20T09:49:16.710Z,100561.50
2022-09-20T09:50:27.674Z,100559.38
2022-09-20T09:51:29.906Z,100569.53
2022-09-20T09:52:33.437Z,100569.53
2022-09-20T09:53:35.797Z,100565.88
2022-09-20T09:54:40.262Z,100554.94
2022-09-20T09:56:14.177Z,100565.06
2022-09-20T09:57:53.993Z,100550.38
2022-09-20T09:59:27.143Z,100569.44
2022-09-20T10:00:31.622Z,100560.47
2022-09-20T10:01:51.894Z,100557.28
2022-09-20T10:03:31.041Z,100556.41
2022-09-20T10:04:54.091Z,100554.44
2022-09-20T10:06:17.442Z,100554.25
2022-09-20T10:07:43.297Z,100544.50
2022-09-20T10:08:47.873Z,100545.53
2022-09-20T10:10:08.011Z,100546.91
2022-09-20T10:11:38.098Z,100558.38
2022-09-20T10:12:57.853Z,100554.28
2022-09-20T10:14:36.949Z,100554.69
2022-09-20T10:15:45.359Z,100556.19
2022-09-20T10:16:58.577Z,100556.50
2022-09-20T10:18:17.314Z,100555.09
2022-09-20T10:19:27.852Z,100552.88
2022-09-20T10:20:39.614Z,100557.97
2022-09-20T10:21:57.019Z,100550.22
2022-09-20T10:23:51.340Z,100550.66
2022-09-20T10:25:15.708Z,100547.13
2022-09-20T10:26:33.809Z,100556.53
2022-09-20T10:28:05.969Z,100548.28
2022-09-20T10:29:08.458Z,100545.13
2022-09-20T10:30:19.934Z,100548.31
2022-09-20T10:31:48.267Z,100546.03
2022-09-20T10:33:10.966Z,100541.19
2022-09-20T10:34:12.581Z,100546.72
2022-09-20T10:35:14.451Z,100543.41
2022-09-20T10:36:24.582Z,100542.19
2022-09-20T10:37:39.469Z,100542.31
2022-09-20T10:39:04.510Z,100545.28
2022-09-20T10:40:17.755Z,100534.31
2022-09-20T10:41:43.696Z,100532.22
2022-09-20T10:43:15.905Z,100537.63
2022-09-20T10:44:20.226Z,100540.94
2022-09-20T10:46:14.067Z,100539.06
2022-09-20T10:47:13.032Z,100535.75
2022-09-20T10:48:35.723Z,100536.28
2022-09-20T10:49:40.145Z,100538.00
2022-09-20T10:51:00.973Z,100541.75
2022-09-20T10:52:21.279Z,100531.84
2022-09-20T10:53:27.150Z,100540.84
2022-09-20T10:54:51.818Z,100537.56
2022-09-20T10:56:03.409Z,100539.56
2022-09-20T10:57:20.085Z,100530.56
2022-09-20T10:58:31.098Z,100533.13
2022-09-20T10:59:51.309Z,100531.56
2022-09-20T11:01:31.372Z,100541.13
2022-09-20T11:02:38.995Z,100538.72
2022-09-20T11:03:40.731Z,100539.09
2022-09-20T11:05:00.328Z,100540.91
2022-09-20T11:06:20.564Z,100542.47
2022-09-20T11:07:50.277Z,100547.66
2022-09-20T11:08:58.067Z,100540.16
2022-09-20T11:10:07.932Z,100515.69
2022-09-20T11:11:18.777Z,100533.50
2022-09-20T11:12:34.755Z,100541.06
2022-09-20T11:13:47.179Z,100542.25
2022-09-20T11:14:54.434Z,100541.44
2022-09-20T11:16:07.545Z,100546.72
2022-09-20T11:17:44.869Z,100547.03
2022-09-20T11:18:52.454Z,100541.50
2022-09-20T11:20:07.776Z,100542.53
2022-09-20T11:21:28.386Z,100543.00
2022-09-20T11:22:40.965Z,100550.56
2022-09-20T11:23:51.612Z,100548.31
2022-09-20T11:25:21.570Z,100546.63
2022-09-20T11:26:31.255Z,100540.50
2022-09-20T11:27:39.169Z,100542.84
2022-09-20T11:28:44.735Z,100542.63
2022-09-20T11:29:57.525Z,100547.56
2022-09-20T11:31:08.574Z,100545.78
2022-09-20T11:32:28.790Z,100559.78
2022-09-20T11:33:41.645Z,100546.06
2022-09-20T11:34:49.385Z,100550.53
2022-09-20T11:35:55.408Z,100542.66
2022-09-20T11:37:01.347Z,100549.84
2022-09-20T11:38:14.166Z,100548.50
2022-09-20T11:39:21.689Z,100557.63
2022-09-20T11:40:37.333Z,100554.97
2022-09-20T11:41:39.268Z,100548.34
2022-09-20T11:42:42.841Z,100551.44
2022-09-20T11:43:47.123Z,100543.81
2022-09-20T11:44:49.419Z,100544.16
2022-09-20T11:45:56.424Z,100552.06
2022-09-20T11:47:50.040Z,100550.81
2022-09-20T11:48:53.295Z,100539.19
2022-09-20T11:50:17.632Z,100546.47
2022-09-20T11:51:28.368Z,100552.63
2022-09-20T11:52:48.558Z,100548.59
2022-09-20T11:54:25.702Z,100543.97
2022-09-20T11:55:42.684Z,100548.13
2022-09-20T11:56:58.292Z,100537.72
2022-09-20T11:58:12.952Z,100532.16
2022-09-20T11:59:38.338Z,100533.50
2022-09-20T12:00:46.648Z,100535.53
2022-09-20T12:01:48.327Z,100537.50
2022-09-20T12:02:53.240Z,100537.78
2022-09-20T12:04:14.516Z,100530.59
2022-09-20T12:05:26.365Z,100539.41
2022-09-20T12:06:35.630Z,100535.63
2022-09-20T12:07:44.553Z,100539.84
2022-09-20T12:08:49.763Z,100529.50
2022-09-20T12:10:25.757Z,100533.22
2022-09-20T12:11:31.445Z,100536.47
2022-09-20T12:12:41.695Z,100543.13
2022-09-20T12:13:57.173Z,100537.31
2022-09-20T12:15:03.020Z,100536.22
2022-09-20T12:16:06.474Z,100539.59
2022-09-20T12:17:45.743Z,100531.91
2022-09-20T12:18:53.945Z,100533.44
2022-09-20T12:19:55.616Z,100544.16
2022-09-20T12:20:58.650Z,100539.16
2022-09-20T12:22:00.194Z,100548.31
2022-09-20T12:23:42.541Z,100519.16
2022-09-20T12:24:45.627Z,100546.91
2022-09-20T12:26:03.729Z,100542.44
2022-09-20T12:27:27.613Z,100547.69
2022-09-20T12:28:57.125Z,100539.88
2022-09-20T12:30:17.383Z,100546.34
2022-09-20T12:31:21.930Z,100544.56
2022-09-20T12:32:52.170Z,100546.06
2022-09-20T12:34:12.229Z,100544.38
2022-09-20T12:35:35.463Z,100543.69
2022-09-20T12:36:53.655Z,100545.31
2022-09-20T12:37:55.587Z,100547.19
2022-09-20T12:39:21.638Z,100535.63
2022-09-20T12:40:26.080Z,100537.16
2022-09-20T12:41:29.241Z,100543.25
2022-09-20T12:42:33.940Z,100529.88
2022-09-20T12:43:39.338Z,100519.28
2022-09-20T12:44:45.509Z,100531.84
2022-09-20T12:45:54.590Z,100524.56
2022-09-20T12:47:00.377Z,100526.81
2022-09-20T12:48:02.086Z,100538.63
2022-09-20T12:49:41.305Z,100536.53
2022-09-20T12:51:18.455Z,100537.91
2022-09-20T12:52:44.423Z,100535.00
2022-09-20T12:53:59.880Z,100533.50
2022-09-20T12:55:04.701Z,100532.91
2022-09-20T12:56:21.130Z,100534.16
2022-09-20T12:57:32.400Z,100535.53
2022-09-20T12:59:07.806Z,100558.06
2022-09-20T13:00:38.933Z,100536.81
2022-09-20T13:01:40.814Z,100538.84
2022-09-20T13:03:12.666Z,100542.91
2022-09-20T13:04:55.136Z,100535.34
2022-09-20T13:06:16.533Z,100528.56
2022-09-20T13:07:41.195Z,100539.06
2022-09-20T13:09:00.000Z,100529.91
2022-09-20T13:10:06.941Z,100532.63
2022-09-20T13:11:14.785Z,100536.44
2022-09-20T13:12:17.132Z,100519.50
2022-09-20T13:13:28.771Z,100533.75
2022-09-20T13:14:32.787Z,100532.19
2022-09-20T13:15:35.622Z,100527.91
2022-09-20T13:16:37.615Z,100525.47
2022-09-20T13:17:42.035Z,100530.53
2022-09-20T13:18:43.924Z,100520.22
2022-09-20T13:19:50.698Z,100530.88
2022-09-20T13:20:53.861Z,100526.03
2022-09-20T13:22:06.224Z,100519.91
2022-09-20T13:23:20.373Z,100527.72
2022-09-20T13:24:25.089Z,100524.63
2022-09-20T13:25:28.453Z,100524.16
2022-09-20T13:26:45.806Z,100529.47
2022-09-20T13:28:09.270Z,100529.44
2022-09-20T13:29:27.593Z,100520.81
2022-09-20T13:30:33.412Z,100523.59
2022-09-20T13:31:35.879Z,100532.00
2022-09-20T13:32:41.710Z,100525.06
2022-09-20T13:33:43.454Z,100521.56
2022-09-20T13:34:48.925Z,100520.63
2022-09-20T13:35:57.138Z,100519.97
2022-09-20T13:36:59.334Z,100514.03
2022-09-20T13:38:07.365Z,100521.41
2022-09-20T13:39:09.835Z,100521.63
2022-09-20T13:40:34.298Z,100528.66
2022-09-20T13:41:36.397Z,100526.50
2022-09-20T13:42:38.156Z,100520.09
2022-09-20T13:43:44.492Z,100521.03
2022-09-20T13:44:48.359Z,100510.06
2022-09-20T13:45:56.304Z,100504.56
2022-09-20T13:46:57.977Z,100521.09
2022-09-20T13:48:01.813Z,100517.59
2022-09-20T13:49:12.238Z,100516.66
2022-09-20T13:50:27.459Z,100513.19
2022-09-20T13:51:34.864Z,100514.09
2022-09-20T13:52:48.725Z,100519.88
2022-09-20T13:53:50.436Z,100515.19
2022-09-20T13:54:52.072Z,100515.44
2022-09-20T13:55:57.005Z,100519.41
2022-09-20T13:57:04.243Z,100517.66